Time;durP1;ratioP1;P1;durP2;ratioP2;P2;SDS_P1;SDS_P2;PMS_P1;PMS_P2;Temp;Humidity;BMP_temperature;BMP_pressure;BME280_temperature;BME280_humidity;BME280_pressure;Samples;Min_cycle;Max_cycle;Signal;HPM_P1;HPM_P2
2022/03/23 00:02:14;;;;;;;31.67;19.17;;;7.80;99.90;;;;;;5077637;28;20080;-61
2022/03/23 00:04:39;;;;;;;30.45;17.95;;;7.70;99.90;;;;;;5058770;28;20066;-61
2022/03/23 00:07:05;;;;;;;34.20;20.58;;;7.70;99.90;;;;;;5077974;28;20037;-61
2022/03/23 00:09:31;;;;;;;29.25;17.83;;;7.60;99.90;;;;;;5077204;28;20529;-61
2022/03/23 00:11:57;;;;;;;31.40;20.08;;;;;;;;;;5058381;28;20045;-61
2022/03/23 00:14:23;;;;;;;33.58;18.02;;;7.70;99.90;;;;;;5058567;28;20044;-61
2022/03/23 00:16:49;;;;;;;32.60;18.20;;;7.60;99.90;;;;;;5059264;28;20075;-61
2022/03/23 00:19:17;;;;;;;27.13;16.88;;;7.70;99.90;;;;;;5077069;28;20032;-61
2022/03/23 00:21:43;;;;;;;28.98;18.63;;;7.40;99.90;;;;;;5042639;28;20070;-61
2022/03/23 00:24:09;;;;;;;33.78;17.85;;;7.50;99.90;;;;;;5076715;28;20068;-61
2022/03/23 00:26:34;;;;;;;33.72;18.55;;;7.30;99.90;;;;;;5059385;28;20053;-61
2022/03/23 00:29:00;;;;;;;37.55;18.88;;;7.30;99.90;;;;;;5077319;28;20052;-61
2022/03/23 00:31:26;;;;;;;26.95;17.10;;;;;;;;;;5076687;28;20032;-60
2022/03/23 00:33:54;;;;;;;32.92;18.75;;;7.10;99.90;;;;;;5076147;28;20486;-60
2022/03/23 00:36:20;;;;;;;27.95;18.13;;;;;;;;;;5076482;28;20045;-61
2022/03/23 00:38:46;;;;;;;34.05;20.40;;;7.00;99.90;;;;;;5076384;28;20056;-61
2022/03/23 00:41:12;;;;;;;34.67;21.38;;;7.10;99.90;;;;;;5076422;28;20071;-60
2022/03/23 00:43:38;;;;;;;30.48;18.42;;;6.90;99.90;;;;;;5076742;28;20086;-61
2022/03/23 00:46:04;;;;;;;26.38;16.20;;;6.90;99.90;;;;;;5058272;28;20041;-61
2022/03/23 00:48:30;;;;;;;28.63;17.00;;;;;;;;;;5076146;28;20041;-60
2022/03/23 00:50:56;;;;;;;27.42;17.33;;;;;;;;;;5075769;28;20037;-61
2022/03/23 00:53:22;;;;;;;29.30;17.73;;;7.00;99.90;;;;;;5076434;28;20389;-61
2022/03/23 00:55:47;;;;;;;27.95;17.70;;;7.00;99.90;;;;;;5075833;28;20040;-61
2022/03/23 00:58:13;;;;;;;27.80;17.30;;;6.90;99.90;;;;;;5075954;28;20033;-61
2022/03/23 01:00:41;;;;;;;33.70;19.23;;;6.90;99.90;;;;;;5075587;28;20045;-61
2022/03/23 01:03:06;;;;;;;27.05;16.90;;;6.70;99.90;;;;;;5075805;28;20052;-61
2022/03/23 01:05:32;;;;;;;31.25;18.52;;;;;;;;;;5075757;28;20508;-61
2022/03/23 01:07:58;;;;;;;29.73;17.88;;;;;;;;;;5075212;28;20047;-61
2022/03/23 01:10:24;;;;;;;31.92;19.45;;;6.90;99.90;;;;;;5076006;28;20029;-61
2022/03/23 01:12:50;;;;;;;27.42;18.85;;;6.70;99.90;;;;;;5075085;28;20044;-61
2022/03/23 01:15:21;;;;;;;32.47;18.40;;;6.70;99.90;;;;;;5075362;28;20036;-61
2022/03/23 01:17:48;;;;;;;26.55;16.23;;;6.50;99.90;;;;;;5057990;28;20044;-61
2022/03/23 01:20:14;;;;;;;24.50;15.93;;;6.60;99.90;;;;;;5076199;28;20127;-61
2022/03/23 01:22:42;;;;;;;32.10;19.10;;;6.80;99.90;;;;;;5076107;28;20047;-61
2022/03/23 01:25:09;;;;;;;28.80;18.38;;;6.70;99.90;;;;;;5058928;28;20032;-62
2022/03/23 01:27:36;;;;;;;29.08;18.17;;;6.50;99.90;;;;;;5057532;28;20498;-60
2022/03/23 01:30:05;;;;;;;31.65;18.95;;;6.10;99.90;;;;;;5075946;28;20154;-61
2022/03/23 01:32:31;;;;;;;32.08;18.98;;;;;;;;;;5056900;28;20047;-61
2022/03/23 01:34:57;;;;;;;35.28;22.65;;;;;;;;;;5057625;28;20585;-61
2022/03/23 01:37:23;;;;;;;37.33;22.48;;;6.40;99.90;;;;;;5075251;28;20406;-61
2022/03/23 01:39:49;;;;;;;39.95;24.17;;;6.20;99.90;;;;;;5076756;28;20055;-61
2022/03/23 01:42:14;;;;;;;42.60;23.05;;;6.30;99.90;;;;;;5075939;28;20040;-60
2022/03/23 01:44:40;;;;;;;38.65;22.98;;;6.20;99.90;;;;;;5074689;28;20028;-59
2022/03/23 01:47:16;;;;;;;37.92;21.92;;;6.40;99.90;;;;;;5057824;28;20040;-60
2022/03/23 01:49:48;;;;;;;37.15;21.63;;;6.40;99.90;;;;;;5058069;28;20631;-61
2022/03/23 01:52:16;;;;;;;34.67;20.92;;;;;;;;;;5075810;28;20064;-60
2022/03/23 01:54:42;;;;;;;35.38;21.67;;;;;;;;;;5074806;28;20494;-61
2022/03/23 01:57:09;;;;;;;30.85;20.17;;;6.10;99.90;;;;;;5074640;28;20070;-60
2022/03/23 01:59:36;;;;;;;37.25;20.55;;;6.30;99.90;;;;;;5074884;28;20123;-61
2022/03/23 02:02:03;;;;;;;34.40;20.48;;;6.10;99.90;;;;;;5074936;28;20040;-61
2022/03/23 02:04:28;;;;;;;37.85;21.08;;;6.00;99.90;;;;;;5075141;28;20047;-61
2022/03/23 02:06:54;;;;;;;40.08;21.95;;;;;;;;;;5057434;28;20056;-59
2022/03/23 02:09:20;;;;;;;44.92;25.83;;;;;;;;;;5050614;28;20033;-60
2022/03/23 02:11:47;;;;;;;45.25;24.50;;;6.20;99.90;;;;;;5055305;28;20041;-61
2022/03/23 02:14:13;;;;;;;43.33;24.92;;;6.20;99.90;;;;;;5037853;28;20063;-61
2022/03/23 02:16:41;;;;;;;36.70;23.15;;;6.20;99.90;;;;;;5054650;28;20037;-61
2022/03/23 02:19:07;;;;;;;35.03;20.92;;;6.20;99.90;;;;;;5054773;28;20123;-60
2022/03/23 02:21:34;;;;;;;38.38;21.77;;;6.20;99.90;;;;;;5055117;28;20457;-61
2022/03/23 02:24:00;;;;;;;41.25;22.45;;;6.30;99.90;;;;;;5054633;28;20051;-61
2022/03/23 02:26:26;;;;;;;37.80;22.10;;;;;;;;;;5036352;28;20056;-61
2022/03/23 02:28:53;;;;;;;40.53;21.88;;;6.20;99.90;;;;;;5055173;28;20045;-61
2022/03/23 02:31:19;;;;;;;30.77;19.38;;;6.10;99.90;;;;;;5055180;28;20043;-61
2022/03/23 02:33:45;;;;;;;30.38;18.55;;;6.00;99.90;;;;;;5054644;28;20403;-61
2022/03/23 02:36:11;;;;;;;33.72;21.52;;;6.00;99.90;;;;;;5035732;28;20048;-54
2022/03/23 02:38:37;;;;;;;37.63;20.85;;;5.90;99.90;;;;;;5052864;28;20148;-56
2022/03/23 02:41:03;;;;;;;33.28;20.00;;;;;;;;;;5052831;28;20098;-57
2022/03/23 02:43:29;;;;;;;34.97;22.33;;;5.80;99.90;;;;;;5053423;28;20045;-57
2022/03/23 02:45:55;;;;;;;36.47;21.33;;;;;;;;;;5068364;28;20043;-56
2022/03/23 02:48:21;;;;;;;36.65;22.50;;;5.80;99.90;;;;;;5075151;28;20068;-57
2022/03/23 02:50:46;;;;;;;32.20;19.98;;;5.90;99.90;;;;;;5058899;28;20047;-55
2022/03/23 03:01:54;;;;;;;42.38;24.05;;;;;;;;;;5076616;28;20056;-56
2022/03/23 03:04:24;;;;;;;40.78;23.00;;;5.80;99.90;;;;;;5058892;28;20498;-57
2022/03/23 03:06:50;;;;;;;48.33;24.67;;;;;;;;;;5077269;28;20036;-58
2022/03/23 03:09:16;;;;;;;43.42;27.55;;;5.60;99.90;;;;;;5076366;28;20039;-54
2022/03/23 03:11:43;;;;;;;48.63;27.58;;;5.60;99.90;;;;;;5076594;28;20120;-57
2022/03/23 03:14:10;;;;;;;43.03;24.33;;;5.50;99.90;;;;;;5058882;28;20052;-55
2022/03/23 03:16:36;;;;;;;43.83;25.33;;;;;;;;;;5076741;28;20040;-58
2022/03/23 03:19:05;;;;;;;45.75;25.58;;;5.60;99.90;;;;;;5058695;28;20036;-56
2022/03/23 03:21:32;;;;;;;42.95;24.08;;;5.60;99.90;;;;;;5076654;28;20028;-54
2022/03/23 03:23:58;;;;;;;43.17;22.30;;;5.70;99.90;;;;;;5058786;28;20045;-56
2022/03/23 03:26:24;;;;;;;35.92;22.77;;;5.50;99.90;;;;;;5076396;28;20556;-56
2022/03/23 03:28:50;;;;;;;37.30;23.17;;;5.70;99.90;;;;;;5059171;28;20543;-57
2022/03/23 03:31:16;;;;;;;36.90;22.30;;;;;;;;;;5076324;28;20037;-57
2022/03/23 03:33:43;;;;;;;39.08;24.15;;;5.50;99.90;;;;;;5058137;28;20044;-57
2022/03/23 03:36:09;;;;;;;41.05;22.40;;;5.50;99.90;;;;;;5076471;28;20044;-55
2022/03/23 03:38:36;;;;;;;43.17;26.67;;;5.10;99.90;;;;;;5076095;28;20037;-56
2022/03/23 03:41:02;;;;;;;51.78;28.80;;;;;;;;;;5075860;28;20068;-58
2022/03/23 03:43:27;;;;;;;37.08;22.65;;;5.40;99.90;;;;;;5058281;28;20552;-57
2022/03/23 03:45:53;;;;;;;42.33;24.75;;;5.50;99.90;;;;;;5076220;28;20032;-56
2022/03/23 03:48:20;;;;;;;43.45;24.83;;;5.30;99.90;;;;;;5058356;28;20048;-57
2022/03/23 03:50:46;;;;;;;45.00;25.50;;;5.40;99.90;;;;;;5058153;28;20086;-56
2022/03/23 03:53:12;;;;;;;47.70;26.95;;;;;;;;;;5076055;28;20448;-56
2022/03/23 03:55:40;;;;;;;46.15;27.80;;;5.50;99.90;;;;;;5075853;28;20098;-57
2022/03/23 03:58:08;;;;;;;47.45;26.42;;;5.30;99.90;;;;;;5076304;28;20074;-56
2022/03/23 04:00:34;;;;;;;47.42;26.20;;;;;;;;;;5048332;28;20102;-56
2022/03/23 04:03:00;;;;;;;51.42;26.80;;;5.20;99.90;;;;;;5041655;28;20044;-56
2022/03/23 04:05:28;;;;;;;40.88;23.67;;;;;;;;;;5076161;28;20094;-56
2022/03/23 04:07:54;;;;;;;37.85;22.27;;;5.20;99.90;;;;;;5075518;28;20032;-56
2022/03/23 04:10:20;;;;;;;36.08;21.92;;;;;;;;;;5075845;28;20561;-58
2022/03/23 04:12:46;;;;;;;40.30;22.27;;;;;;;;;;5075740;28;20037;-57
2022/03/23 04:15:12;;;;;;;38.90;21.33;;;5.10;99.90;;;;;;5075975;28;20040;-57
2022/03/23 04:17:38;;;;;;;33.65;20.10;;;;;;;;;;5057868;28;20049;-56
2022/03/23 04:20:05;;;;;;;37.70;21.25;;;;;;;;;;5057953;28;20084;-56
2022/03/23 04:22:31;;;;;;;40.70;22.13;;;;;;;;;;5075193;28;20090;-56
2022/03/23 04:24:57;;;;;;;39.60;22.52;;;4.90;99.90;;;;;;5075117;28;20498;-55
2022/03/23 04:27:22;;;;;;;40.28;21.90;;;4.90;99.90;;;;;;5075436;28;20115;-57
2022/03/23 04:29:48;;;;;;;36.72;21.42;;;4.90;99.90;;;;;;5057831;28;20482;-56
2022/03/23 04:32:13;;;;;;;36.85;23.05;;;4.90;99.90;;;;;;5075283;28;20036;-56
2022/03/23 04:34:39;;;;;;;40.47;24.67;;;4.80;99.90;;;;;;5075322;28;20044;-56
2022/03/23 04:37:05;;;;;;;40.65;22.92;;;4.80;99.90;;;;;;5075750;28;20036;-57
2022/03/23 04:39:31;;;;;;;38.88;21.70;;;;;;;;;;5075341;28;20037;-56
2022/03/23 04:41:58;;;;;;;33.40;20.38;;;;;;;;;;5075393;28;20439;-56
2022/03/23 04:44:24;;;;;;;36.08;21.48;;;;;;;;;;5075041;28;20075;-59
2022/03/23 04:46:50;;;;;;;36.35;22.27;;;;;;;;;;5074626;28;20127;-57
2022/03/23 04:49:15;;;;;;;38.50;23.48;;;4.80;99.90;;;;;;5075036;28;20036;-57
2022/03/23 04:51:41;;;;;;;42.50;25.40;;;4.80;99.90;;;;;;5057313;28;20037;-56
2022/03/23 04:54:07;;;;;;;44.28;24.88;;;4.60;99.90;;;;;;5074869;28;20040;-56
2022/03/23 04:56:33;;;;;;;39.90;24.77;;;4.80;99.90;;;;;;5066547;28;20062;-56
2022/03/23 04:58:59;;;;;;;37.25;22.33;;;;;;;;;;5057005;28;20041;-59
2022/03/23 05:01:25;;;;;;;39.22;22.13;;;4.90;99.90;;;;;;5074930;28;20044;-56
2022/03/23 05:03:52;;;;;;;27.05;16.20;;;;;;;;;;5074908;28;20062;-56
2022/03/23 05:06:21;;;;;;;35.13;20.63;;;4.80;99.90;;;;;;5056351;28;20037;-57
2022/03/23 05:08:46;;;;;;;37.10;23.08;;;4.60;99.90;;;;;;5074099;28;20465;-55
2022/03/23 05:11:12;;;;;;;38.72;23.00;;;;;;;;;;5074313;28;20115;-56
2022/03/23 05:13:38;;;;;;;43.22;23.10;;;;;;;;;;5074412;28;20044;-56
2022/03/23 05:16:04;;;;;;;38.65;21.92;;;4.40;99.90;;;;;;5056802;28;20040;-56
2022/03/23 05:18:31;;;;;;;39.53;24.55;;;;;;;;;;5057004;28;20045;-57
2022/03/23 05:20:56;;;;;;;43.83;26.25;;;;;;;;;;5056680;28;20086;-57
2022/03/23 05:23:22;;;;;;;40.10;22.10;;;;;;;;;;5074366;28;20040;-57
2022/03/23 05:25:48;;;;;;;33.78;20.02;;;4.60;99.90;;;;;;5062029;28;20052;-58
2022/03/23 05:28:14;;;;;;;33.03;20.02;;;;;;;;;;5049957;28;20118;-57
2022/03/23 05:30:40;;;;;;;37.78;23.02;;;;;;;;;;5046849;28;20139;-58
2022/03/23 05:33:06;;;;;;;47.60;26.48;;;;;;;;;;5046075;28;20124;-57
2022/03/23 05:35:32;;;;;;;34.40;20.50;;;;;;;;;;5046526;28;20043;-57
2022/03/23 05:37:58;;;;;;;37.80;21.50;;;;;;;;;;5028960;28;20063;-58
2022/03/23 05:40:24;;;;;;;44.33;24.13;;;;;;;;;;5045996;28;20049;-59
2022/03/23 05:42:51;;;;;;;37.50;21.75;;;;;;;;;;5054286;28;20048;-56
2022/03/23 05:45:17;;;;;;;45.50;24.35;;;;;;;;;;5048058;28;20048;-57
2022/03/23 05:47:43;;;;;;;42.92;24.17;;;;;;;;;;5047620;28;20481;-57
2022/03/23 05:50:10;;;;;;;42.80;24.48;;;;;;;;;;5047205;28;20040;-58
2022/03/23 05:52:36;;;;;;;42.05;25.17;;;;;;;;;;5065348;28;20039;-57
2022/03/23 05:55:02;;;;;;;34.33;21.17;;;;;;;;;;5065530;28;20044;-58
2022/03/23 05:57:29;;;;;;;35.22;21.42;;;;;;;;;;5065599;28;20115;-58
2022/03/23 05:59:55;;;;;;;44.88;23.25;;;;;;;;;;5058080;28;20036;-60
2022/03/23 06:02:21;;;;;;;36.38;21.98;;;;;;;;;;5045063;28;20176;-60
2022/03/23 06:04:47;;;;;;;41.13;22.42;;;;;;;;;;5043818;28;20049;-60
2022/03/23 06:07:13;;;;;;;36.95;22.65;;;;;;;;;;5042809;28;20456;-58
2022/03/23 06:09:39;;;;;;;47.80;24.13;;;;;;;;;;5044829;28;20041;-61
2022/03/23 06:12:06;;;;;;;44.50;23.98;;;;;;;;;;5045738;28;20152;-62
2022/03/23 06:14:32;;;;;;;42.45;23.25;;;;;;;;;;5045935;28;20172;-62
2022/03/23 06:16:58;;;;;;;44.42;24.95;;;;;;;;;;5048396;28;20039;-62
2022/03/23 06:19:25;;;;;;;43.30;24.85;;;;;;;;;;5044616;28;20135;-62
2022/03/23 06:21:51;;;;;;;35.10;21.35;;;;;;;;;;5048009;28;20044;-62
2022/03/23 06:24:16;;;;;;;36.83;21.35;;;;;;;;;;5067192;28;20478;-62
2022/03/23 06:26:42;;;;;;;38.42;21.63;;;;;;;;;;5071100;28;20048;-62
2022/03/23 06:29:08;;;;;;;38.15;23.20;;;;;;;;;;5071636;28;20036;-62
2022/03/23 06:31:34;;;;;;;40.05;22.92;;;;;;;;;;5044373;28;20494;-62
2022/03/23 06:34:03;;;;;;;41.65;23.50;;;;;;;;;;5052772;28;20089;-64
2022/03/23 06:36:29;;;;;;;38.53;23.35;;;;;;;;;;5052246;28;20053;-63
2022/03/23 06:38:55;;;;;;;39.97;25.02;;;;;;;;;;5070602;28;20466;-63
2022/03/23 06:41:20;;;;;;;45.45;26.73;;;6.60;99.90;;;;;;5050548;28;20044;-61
2022/03/23 06:43:46;;;;;;;49.78;26.25;;;;;;;;;;5074415;28;20367;-63
2022/03/23 06:46:12;;;;;;;46.53;27.08;;;;;;;;;;5055667;28;20060;-63
2022/03/23 06:48:38;;;;;;;47.50;26.52;;;7.20;99.90;;;;;;5069149;28;20135;-63
2022/03/23 06:51:04;;;;;;;51.83;31.08;;;;;;;;;;5074342;28;20568;-63
2022/03/23 06:53:30;;;;;;;54.05;29.95;;;7.30;99.90;;;;;;5078283;28;20600;-61
2022/03/23 06:55:55;;;;;;;50.28;31.52;;;7.40;99.90;;;;;;5080784;28;20119;-61
2022/03/23 06:58:21;;;;;;;54.33;31.90;;;7.30;99.90;;;;;;5078993;28;20037;-60
2022/03/23 07:00:47;;;;;;;59.42;33.88;;;;;;;;;;5060809;28;20123;-61
2022/03/23 07:03:12;;;;;;;51.90;32.28;;;8.60;99.90;;;;;;5060553;28;20048;-62
2022/03/23 07:05:38;;;;;;;52.70;31.45;;;;;;;;;;5077121;28;20041;-61
2022/03/23 07:10:49;;;;;;;45.47;28.17;;;10.70;99.90;;;;;;5078490;28;20037;-61
2022/03/23 07:13:14;;;;;;;46.97;29.13;;;11.50;99.90;;;;;;5076734;28;20137;-63
2022/03/23 07:15:42;;;;;;;48.55;29.75;;;12.10;99.90;;;;;;5078183;28;20501;-64
2022/03/23 07:18:08;;;;;;;50.85;31.10;;;13.10;99.90;;;;;;5078797;28;20029;-63
2022/03/23 07:20:34;;;;;;;43.42;28.52;;;13.60;99.90;;;;;;5075687;28;20546;-64
2022/03/23 07:23:00;;;;;;;47.72;31.58;;;14.20;99.90;;;;;;5076391;28;20043;-62
2022/03/23 07:25:26;;;;;;;48.30;30.13;;;;;;;;;;5070996;28;20086;-61
2022/03/23 07:27:52;;;;;;;46.67;29.83;;;;;;;;;;5026091;28;20101;-65
2022/03/23 07:30:19;;;;;;;52.47;32.53;;;;;;;;;;5024066;28;20031;-63
2022/03/23 07:32:45;;;;;;;46.33;31.70;;;;;;;;;;5042120;28;20057;-63
2022/03/23 07:35:11;;;;;;;46.40;30.58;;;16.90;99.90;;;;;;5041823;28;20050;-63
2022/03/23 07:37:36;;;;;;;46.33;32.22;;;16.80;99.90;;;;;;5032103;28;20127;-64
2022/03/23 07:40:03;;;;;;;45.55;29.85;;;17.40;99.90;;;;;;5037230;28;20464;-63
2022/03/23 07:42:29;;;;;;;45.00;30.95;;;17.70;99.90;;;;;;5053602;28;20464;-63
2022/03/23 07:44:55;;;;;;;45.78;29.98;;;17.70;99.90;;;;;;5026680;28;20038;-64
2022/03/23 07:47:21;;;;;;;43.50;29.20;;;18.20;99.90;;;;;;5043692;28;20521;-64
2022/03/23 07:49:47;;;;;;;47.08;31.08;;;18.80;99.90;;;;;;5035276;28;20032;-62
2022/03/23 07:52:12;;;;;;;47.17;30.42;;;18.70;99.90;;;;;;5023222;28;20074;-64
2022/03/23 07:54:38;;;;;;;45.47;29.67;;;18.90;99.90;;;;;;5028462;28;20174;-64
2022/03/23 07:57:04;;;;;;;43.70;29.70;;;18.90;99.90;;;;;;4988965;28;20050;-62
2022/03/23 07:59:30;;;;;;;46.03;30.58;;;18.70;99.90;;;;;;5036249;28;20048;-62
2022/03/23 08:01:56;;;;;;;43.30;30.58;;;19.00;99.90;;;;;;5026081;28;20548;-63
2022/03/23 08:04:21;;;;;;;42.28;29.73;;;18.60;99.90;;;;;;5039598;28;20036;-63
2022/03/23 08:06:47;;;;;;;36.95;28.35;;;18.60;99.90;;;;;;5033998;28;20118;-63
2022/03/23 08:09:12;;;;;;;39.92;29.10;;;17.60;99.90;;;;;;5031764;28;20442;-63
2022/03/23 08:11:38;;;;;;;43.75;29.73;;;17.00;99.90;;;;;;5022519;28;20134;-64
2022/03/23 08:14:03;;;;;;;42.33;29.83;;;16.90;99.90;;;;;;5026124;28;20267;-65
2022/03/23 08:16:29;;;;;;;41.95;29.17;;;17.10;99.90;;;;;;5029711;28;20171;-65
2022/03/23 08:18:55;;;;;;;40.42;27.67;;;17.20;99.90;;;;;;5018596;28;21597;-65
2022/03/23 08:21:22;;;;;;;41.92;28.15;;;17.20;99.90;;;;;;5036494;28;20055;-64
2022/03/23 08:23:48;;;;;;;41.15;26.73;;;17.20;99.90;;;;;;5016037;28;20497;-64
2022/03/23 08:26:15;;;;;;;35.47;26.35;;;17.50;99.90;;;;;;5022319;28;20073;-64
2022/03/23 08:28:41;;;;;;;36.17;26.13;;;16.90;99.90;;;;;;4975640;28;20099;-65
2022/03/23 08:31:07;;;;;;;39.35;26.15;;;16.90;99.90;;;;;;4974506;28;20056;-66
2022/03/23 08:33:34;;;;;;;38.88;25.58;;;17.50;99.90;;;;;;4974769;28;20054;-65
2022/03/23 08:36:01;;;;;;;40.55;24.55;;;17.80;99.90;;;;;;4956287;28;20062;-65
2022/03/23 08:38:27;;;;;;;34.38;23.65;;;18.10;99.90;;;;;;4975307;28;20047;-65
2022/03/23 08:40:53;;;;;;;37.15;24.55;;;18.20;99.90;;;;;;4974633;28;20077;-66
2022/03/23 08:43:19;;;;;;;38.10;24.70;;;18.40;99.90;;;;;;4975320;28;20042;-66
2022/03/23 08:45:45;;;;;;;37.20;24.60;;;18.30;99.90;;;;;;4955302;28;20054;-66
2022/03/23 08:48:10;;;;;;;33.55;24.77;;;18.50;99.90;;;;;;4956954;28;20061;-65
2022/03/23 08:50:36;;;;;;;34.38;23.75;;;18.50;99.90;;;;;;4972427;28;20038;-66
2022/03/23 08:53:03;;;;;;;35.00;24.10;;;18.50;99.00;;;;;;4974599;28;20050;-64
2022/03/23 08:55:29;;;;;;;34.42;23.25;;;18.80;98.50;;;;;;4957658;28;20061;-64
2022/03/23 08:57:55;;;;;;;35.95;24.58;;;19.00;97.60;;;;;;4974334;28;20042;-64
2022/03/23 09:00:20;;;;;;;36.08;23.90;;;19.50;96.50;;;;;;4974142;28;20046;-64
2022/03/23 09:02:46;;;;;;;31.17;23.17;;;18.90;96.10;;;;;;4974593;28;20049;-62
2022/03/23 09:05:14;;;;;;;32.65;23.02;;;19.70;96.10;;;;;;4957273;28;20058;-65
2022/03/23 09:07:41;;;;;;;35.47;25.15;;;21.00;93.10;;;;;;4956722;28;20062;-63
2022/03/23 09:10:08;;;;;;;33.50;23.52;;;21.20;93.90;;;;;;4956892;28;20046;-64
2022/03/23 09:12:34;;;;;;;34.28;23.23;;;21.50;92.80;;;;;;4956060;28;20050;-65
2022/03/23 09:15:00;;;;;;;33.05;22.98;;;21.80;92.00;;;;;;4974446;28;20578;-65
2022/03/23 09:17:26;;;;;;;29.80;22.35;;;22.90;90.70;;;;;;4957865;28;20070;-67
2022/03/23 09:19:52;;;;;;;32.47;22.25;;;23.70;90.60;;;;;;4957479;28;20502;-66
2022/03/23 09:22:17;;;;;;;34.78;23.23;;;24.20;90.00;;;;;;4957634;28;20110;-66
2022/03/23 09:24:43;;;;;;;35.13;23.65;;;25.30;88.90;;;;;;4957668;28;20878;-63
2022/03/23 09:27:08;;;;;;;30.05;22.05;;;25.90;85.00;;;;;;4975537;28;20126;-64
2022/03/23 09:29:34;;;;;;;27.77;20.65;;;25.70;80.40;;;;;;4975509;28;20049;-64
2022/03/23 09:32:00;;;;;;;30.00;22.52;;;26.30;79.80;;;;;;4957138;28;20055;-65
2022/03/23 09:34:25;;;;;;;29.50;19.65;;;26.30;79.80;;;;;;4956598;28;21347;-65
2022/03/23 09:39:36;;;;;;;24.25;18.60;;;25.20;74.20;;;;;;4975253;28;20050;-64
2022/03/23 09:42:05;;;;;;;26.75;19.90;;;24.30;74.90;;;;;;4975103;28;20042;-63
2022/03/23 09:44:31;;;;;;;25.33;18.67;;;22.90;75.80;;;;;;4957284;28;20085;-67
2022/03/23 09:46:57;;;;;;;27.80;18.77;;;22.00;76.50;;;;;;4974779;28;20491;-65
2022/03/23 09:49:24;;;;;;;27.98;18.63;;;21.20;77.90;;;;;;4975134;28;20091;-64
2022/03/23 09:51:53;;;;;;;27.35;17.95;;;20.60;79.80;;;;;;4975134;28;20103;-64
2022/03/23 09:54:21;;;;;;;26.23;18.15;;;20.00;75.30;;;;;;4974713;28;20058;-64
2022/03/23 09:56:47;;;;;;;24.02;17.70;;;19.80;78.50;;;;;;4941317;28;20057;-64
2022/03/23 09:59:13;;;;;;;23.15;15.85;;;20.00;78.60;;;;;;4957118;28;20059;-65
2022/03/23 10:01:47;;;;;;;27.58;16.98;;;19.40;77.90;;;;;;4974827;28;20053;-64
2022/03/23 10:04:12;;;;;;;26.60;16.73;;;19.40;77.30;;;;;;4956812;28;20046;-64
2022/03/23 10:07:06;;;;;;;23.45;16.80;;;19.40;78.70;;;;;;4956842;28;20732;-63
2022/03/23 10:10:09;;;;;;;25.83;16.67;;;19.30;78.80;;;;;;4957639;28;20104;-65
2022/03/23 10:12:44;;;;;;;25.65;17.33;;;19.10;78.80;;;;;;4955136;28;20520;-65
2022/03/23 10:15:37;;;;;;;23.80;17.23;;;19.40;77.90;;;;;;4956760;28;20065;-65
2022/03/23 10:18:33;;;;;;;22.23;16.33;;;19.20;79.00;;;;;;4955550;28;20065;-64
2022/03/23 10:20:58;;;;;;;24.88;15.77;;;19.10;80.80;;;;;;4941064;28;20055;-65
2022/03/23 10:23:24;;;;;;;22.60;14.82;;;19.10;78.50;;;;;;4957042;28;20057;-65
2022/03/23 10:25:50;;;;;;;23.05;14.45;;;19.10;77.70;;;;;;4974231;28;20059;-64
2022/03/23 10:28:18;;;;;;;23.52;13.65;;;19.20;80.70;;;;;;4954017;28;20115;-64
2022/03/23 10:30:45;;;;;;;21.13;14.45;;;19.20;79.40;;;;;;4973545;28;20410;-64
2022/03/23 10:33:22;;;;;;;24.40;12.85;;;19.50;80.10;;;;;;4972544;28;20077;-65
2022/03/23 10:35:49;;;;;;;22.20;14.50;;;19.20;79.30;;;;;;4956521;28;20054;-66
2022/03/23 10:38:17;;;;;;;24.08;15.45;;;19.00;80.00;;;;;;4972865;28;20050;-65
2022/03/23 10:40:45;;;;;;;22.98;15.35;;;19.10;81.70;;;;;;4974179;28;20034;-65
2022/03/23 10:43:15;;;;;;;24.48;14.77;;;19.30;82.80;;;;;;4973470;28;20042;-65
2022/03/23 10:45:41;;;;;;;16.38;11.90;;;19.10;82.00;;;;;;4973773;28;20054;-66
2022/03/23 10:48:15;;;;;;;20.25;12.48;;;19.30;77.50;;;;;;4954502;28;20470;-65
2022/03/23 10:50:56;;;;;;;24.70;14.25;;;19.50;78.10;;;;;;4955421;28;20129;-65
2022/03/23 10:53:34;;;;;;;24.55;14.20;;;19.70;80.20;;;;;;4955322;28;20527;-66
2022/03/23 10:56:01;;;;;;;26.40;10.73;;;19.30;78.50;;;;;;4956083;28;20454;-65
2022/03/23 10:58:27;;;;;;;19.05;10.35;;;19.40;78.40;;;;;;4971654;28;20046;-65
2022/03/23 11:01:06;;;;;;;23.15;10.63;;;19.40;76.10;;;;;;4973217;28;20092;-63
2022/03/23 11:03:43;;;;;;;24.98;10.90;;;19.30;76.20;;;;;;4955726;28;20066;-64
2022/03/23 11:06:13;;;;;;;17.02;10.27;;;19.00;79.10;;;;;;4954922;28;20054;-64
2022/03/23 11:08:43;;;;;;;21.58;11.27;;;19.20;78.20;;;;;;4972229;28;20121;-61
2022/03/23 11:16:53;;;;;;;18.00;10.70;;;19.00;75.60;;;;;;4975576;28;20504;-63
2022/03/23 11:19:23;;;;;;;17.90;11.00;;;19.20;78.30;;;;;;4975008;28;20456;-63
2022/03/23 11:22:09;;;;;;;24.35;11.20;;;19.00;79.60;;;;;;4975738;28;20047;-63
2022/03/23 11:24:36;;;;;;;22.00;10.93;;;19.20;79.00;;;;;;4955892;28;20078;-62
2022/03/23 11:27:03;;;;;;;28.40;11.70;;;19.50;81.60;;;;;;4955563;28;20058;-62
2022/03/23 11:29:31;;;;;;;20.30;10.30;;;19.50;78.80;;;;;;4973870;28;20526;-62
2022/03/23 11:32:00;;;;;;;22.30;9.52;;;19.70;79.50;;;;;;4973855;28;20407;-63
2022/03/23 11:34:30;;;;;;;22.13;9.60;;;19.70;77.50;;;;;;4975716;28;20034;-62
2022/03/23 11:36:56;;;;;;;23.58;8.95;;;20.60;77.40;;;;;;4957043;28;20143;-65
2022/03/23 11:39:22;;;;;;;19.50;9.70;;;19.40;78.10;;;;;;4964822;28;20054;-64
2022/03/23 11:41:51;;;;;;;21.15;10.80;;;19.10;76.60;;;;;;4956723;28;20039;-63
2022/03/23 11:44:22;;;;;;;16.02;10.30;;;19.50;77.60;;;;;;4959513;28;20589;-63
2022/03/23 11:46:49;;;;;;;19.05;10.25;;;19.20;76.30;;;;;;4952479;28;20050;-65
2022/03/23 11:49:28;;;;;;;25.98;12.07;;;19.30;79.70;;;;;;4970893;28;20579;-64
2022/03/23 11:52:10;;;;;;;21.45;11.35;;;19.50;82.90;;;;;;4954228;28;20061;-64
2022/03/23 11:57:53;;;;;;;20.20;10.68;;;19.70;80.30;;;;;;4971293;28;20050;-63
2022/03/23 12:00:20;;;;;;;21.17;7.07;;;19.70;80.80;;;;;;4971882;28;20389;-63
2022/03/23 12:02:45;;;;;;;18.00;7.95;;;19.70;82.60;;;;;;4935935;28;20460;-65
2022/03/23 12:05:31;;;;;;;16.83;7.28;;;19.70;83.40;;;;;;4968377;28;20046;-64
2022/03/23 12:07:56;;;;;;;27.58;7.40;;;19.70;82.30;;;;;;4951108;28;20046;-65
2022/03/23 12:10:32;;;;;;;18.35;7.30;;;19.80;82.50;;;;;;4952020;28;20058;-65
2022/03/23 12:13:17;;;;;;;18.95;10.40;;;20.00;82.60;;;;;;4952004;28;20054;-65
2022/03/23 12:15:58;;;;;;;17.08;7.93;;;20.10;79.10;;;;;;4952579;28;20058;-65
2022/03/23 12:19:10;;;;;;;23.05;10.95;;;20.20;77.60;;;;;;4951795;28;20050;-64
2022/03/23 12:22:05;;;;;;;20.13;7.97;;;19.80;81.40;;;;;;4951659;28;20066;-65
2022/03/23 12:24:50;;;;;;;18.40;6.07;;;19.70;77.90;;;;;;4969139;28;20054;-65
2022/03/23 12:27:45;;;;;;;21.02;6.88;;;19.60;79.80;;;;;;4967786;28;20313;-64
2022/03/23 12:30:17;;;;;;;22.53;6.30;;;19.20;79.00;;;;;;4974415;28;20058;-64
2022/03/23 12:32:42;;;;;;;19.00;5.85;;;19.30;85.20;;;;;;4950595;28;20456;-65
2022/03/23 12:35:08;;;;;;;14.15;4.90;;;19.00;88.20;;;;;;4970069;28;20057;-66
2022/03/23 12:37:39;;;;;;;23.40;6.00;;;19.10;86.30;;;;;;4966491;28;20145;-66
2022/03/23 12:40:10;;;;;;;16.67;6.43;;;19.10;83.60;;;;;;4966402;28;20050;-65
2022/03/23 12:42:42;;;;;;;19.73;6.28;;;19.00;83.60;;;;;;4965725;28;20053;-65
2022/03/23 12:45:13;;;;;;;17.80;6.10;;;19.00;84.20;;;;;;4948657;28;20082;-65
2022/03/23 12:47:58;;;;;;;16.60;4.90;;;19.10;84.40;;;;;;4948478;28;20571;-66
2022/03/23 12:58:47;;;;;;;23.25;6.68;;;18.90;84.40;;;;;;4954171;28;20290;-64
2022/03/23 13:01:17;;;;;;;22.13;6.30;;;18.90;85.30;;;;;;4954334;28;20054;-64
2022/03/23 13:03:49;;;;;;;16.10;6.55;;;18.90;83.20;;;;;;4971809;28;20054;-64
2022/03/23 13:06:19;;;;;;;14.13;6.35;;;19.00;83.50;;;;;;4954678;28;20058;-64
2022/03/23 13:08:47;;;;;;;18.65;7.00;;;19.20;84.20;;;;;;4955173;28;20042;-64
2022/03/23 13:11:16;;;;;;;18.45;5.28;;;18.90;84.10;;;;;;4954687;28;20054;-62
2022/03/23 13:13:46;;;;;;;14.82;5.13;;;19.10;81.90;;;;;;4971232;28;20078;-64
2022/03/23 13:16:15;;;;;;;12.88;5.32;;;18.90;81.00;;;;;;4972064;28;20710;-64
2022/03/23 13:18:41;;;;;;;17.75;5.43;;;19.20;80.90;;;;;;4954433;28;20442;-64
2022/03/23 13:21:13;;;;;;;22.63;6.63;;;19.40;81.50;;;;;;4955068;28;20092;-64
2022/03/23 13:23:43;;;;;;;16.48;6.68;;;19.30;79.90;;;;;;4974620;28;20050;-64
2022/03/23 13:26:17;;;;;;;23.13;7.47;;;19.20;82.40;;;;;;4974268;28;20065;-64
2022/03/23 13:28:51;;;;;;;20.90;7.07;;;19.20;80.10;;;;;;4956500;28;20054;-64
2022/03/23 13:31:22;;;;;;;16.67;6.53;;;19.20;81.90;;;;;;4973497;28;20592;-64